Flight Track Log - Related Links

Times and Time Zones

All times are in EST time to prevent confusion due to time zone crossing. See the CCA1226 flight status page for this flight to view local times or setup timezone preferences in your user account.

Time Position Orientation Groundspeed Altitude Reporting Facility
EST Latitude Longitude Course Direction KTS MPH feet Rate Location/Type
Wed 08:42:00 AM 25.7023 110.2205 19° North  Level Estimated
Wed 08:43:00 AM 25.7992 110.2569 19° North  Level Estimated
Wed 08:44:00 AM 25.8960 110.2934 19° North  Level Estimated
Wed 08:45:00 AM 25.9928 110.3299 19° North  Level Estimated
Wed 08:46:00 AM 26.0896 110.3666 19° North  Level Estimated
Wed 08:47:00 AM 26.1863 110.4032 19° North  Level Estimated
Wed 08:48:00 AM 26.2831 110.4400 19° North  Level Estimated
Wed 08:49:00 AM 26.3799 110.4768 19° North  Level Estimated
Wed 08:50:00 AM 26.4766 110.5136 19° North  Level Estimated
Wed 08:51:00 AM 26.5734 110.5505 19° North  Level Estimated
Wed 08:52:00 AM 26.6701 110.5875 19° North  Level Estimated
Wed 08:53:00 AM 26.7668 110.6246 19° North  Level Estimated
Wed 08:54:00 AM 26.8636 110.6617 19° North  Level Estimated
Wed 08:55:00 AM 26.9603 110.6988 19° North  Level Estimated
Wed 08:56:00 AM 27.0570 110.7361 19° North  Level Estimated
Wed 08:57:00 AM 27.1537 110.7734 19° North  Level Estimated
Wed 08:58:00 AM 27.2504 110.8107 19° North  Level Estimated
Wed 08:59:00 AM 27.3470 110.8482 19° North  Level Estimated
Wed 09:00:00 AM 27.4437 110.8857 19° North  Level Estimated
Wed 09:01:00 AM 27.5403 110.9232 19° North  Level Estimated
Wed 09:02:00 AM 27.6370 110.9608 19° North  Level Estimated
Wed 09:03:00 AM 27.7336 110.9985 19° North  Level Estimated
Wed 09:04:00 AM 27.8302 111.0363 19° North  Level Estimated
Wed 09:05:00 AM 27.9268 111.0741 19° North  Level Estimated
Wed 09:06:00 AM 28.0234 111.1120 19° North  Level Estimated
Wed 09:07:00 AM 28.1200 111.1500 19° North  Level Estimated
Wed 09:08:00 AM 28.2166 111.1880 19° North  Level Estimated
Wed 09:09:00 AM 28.3132 111.2261 19° North  Level Estimated
Wed 09:10:00 AM 28.4097 111.2643 19° North  Level Estimated
Wed 09:11:00 AM 28.5063 111.3025 19° North  Level Estimated
Wed 09:12:00 AM 28.6028 111.3408 19° North  Level Estimated
Wed 09:13:00 AM 28.6993 111.3792 19° North  Level Estimated
Wed 09:14:00 AM 28.7958 111.4176 19° North  Level Estimated
Wed 09:15:00 AM 28.8923 111.4562 19° North  Level Estimated
Wed 09:16:00 AM 28.9888 111.4948 19° North  Level Estimated
Wed 09:17:00 AM 29.0853 111.5334 19° North  Level Estimated
Wed 09:18:00 AM 29.1818 111.5722 19° North  Level Estimated
Wed 09:19:00 AM 29.2782 111.6110 19° North  Level Estimated
Wed 09:20:00 AM 29.3747 111.6498 19° North  Level Estimated
Wed 09:21:00 AM 29.4711 111.6888 19° North  Level Estimated
Wed 09:22:00 AM 29.5675 111.7278 19° North  Level Estimated
Wed 09:23:00 AM 29.6639 111.7670 19° North  Level Estimated
Wed 09:24:00 AM 29.7603 111.8061 19° North  Level Estimated
Wed 09:25:00 AM 29.8567 111.8454 19° North  Level Estimated
Wed 09:26:00 AM 29.9531 111.8847 19° North  Level Estimated
Wed 09:27:00 AM 30.0495 111.9241 19° North  Level Estimated
Wed 09:28:00 AM 30.1458 111.9636 20° North  Level Estimated
Wed 09:29:00 AM 30.2421 112.0032 20° North  Level Estimated
Wed 09:30:00 AM 30.3385 112.0428 20° North  Level Estimated
Wed 09:31:00 AM 30.4348 112.0825 20° North  Level Estimated
Wed 09:32:00 AM 30.5311 112.1223 20° North  Level Estimated
Wed 09:33:00 AM 30.6274 112.1622 20° North  Level Estimated
Wed 09:34:00 AM 30.7237 112.2022 20° North  Level Estimated
Wed 09:35:00 AM 30.8200 112.2422 20° North  Level Estimated
Wed 09:36:00 AM 30.9162 112.2823 20° North  Level Estimated
Wed 09:37:00 AM 31.0124 112.3225 20° North  Level Estimated
Wed 09:38:00 AM 31.1087 112.3628 20° North  Level Estimated
Wed 09:39:00 AM 31.2049 112.4032 20° North  Level Estimated
Wed 09:40:00 AM 31.3011 112.4436 20° North  Level Estimated
Wed 09:41:00 AM 31.3973 112.4841 20° North  Level Estimated
Wed 09:42:00 AM 31.4935 112.5247 20° North  Level Estimated
Wed 09:43:00 AM 31.5896 112.5654 20° North  Level Estimated
Wed 09:44:00 AM 31.6858 112.6062 20° North  Level Estimated
Wed 09:45:00 AM 31.7819 112.6471 20° North  Level Estimated
Wed 09:46:00 AM 31.8781 112.6880 20° North  Level Estimated
Wed 09:47:00 AM 31.9742 112.7290 20° North  Level Estimated
Wed 09:48:00 AM 32.0703 112.7701 20° North  Level Estimated
Wed 09:49:00 AM 32.1664 112.8113 20° North  Level Estimated
Wed 09:50:00 AM 32.2625 112.8526 20° North  Level Estimated
Wed 09:51:00 AM 32.3585 112.8940 20° North  Level Estimated
Wed 09:52:00 AM 32.4546 112.9355 20° North  Level Estimated
Wed 09:53:00 AM 32.5506 112.9770 20° North  Level Estimated
Wed 09:54:00 AM 32.6466 113.0187 20° North  Level Estimated
Wed 09:55:00 AM 32.7426 113.0604 20° North  Level Estimated
Wed 09:56:00 AM 32.8386 113.1022 20° North  Level Estimated
Wed 09:57:00 AM 32.9346 113.1441 20° North  Level Estimated
Wed 09:58:00 AM 33.0306 113.1861 20° North  Level Estimated
Wed 09:59:00 AM 33.1265 113.2282 20° North  Level Estimated
Wed 10:00:00 AM 33.2225 113.2704 20° North  Level Estimated
Wed 10:01:00 AM 33.3184 113.3127 20° North  Level Estimated
Wed 10:02:00 AM 33.4143 113.3551 20° North  Level Estimated
Wed 10:03:00 AM 33.5102 113.3975 20° North  Level Estimated
Wed 10:04:00 AM 33.6061 113.4401 20° North  Level Estimated
Wed 10:05:00 AM 33.7020 113.4828 20° North  Level Estimated
Wed 10:06:00 AM 33.7978 113.5255 20° North  Level Estimated
Wed 10:07:00 AM 33.8936 113.5684 20° North  Level Estimated
Wed 10:08:00 AM 33.9895 113.6113 20° North  Level Estimated
Wed 10:09:00 AM 34.0853 113.6543 20° North  Level Estimated
Wed 10:10:00 AM 34.1811 113.6975 20° North  Level Estimated
Wed 10:11:00 AM 34.2768 113.7407 20° North  Level Estimated
Wed 10:12:00 AM 34.3726 113.7840 20° North  Level Estimated
Wed 10:13:00 AM 34.4683 113.8275 21° North  Level Estimated
Wed 10:14:00 AM 34.5641 113.8710 21° North  Level Estimated
Wed 10:15:00 AM 34.6598 113.9146 21° North  Level Estimated
Wed 10:16:00 AM 34.7555 113.9584 21° North  Level Estimated
Wed 10:17:00 AM 34.8512 114.0022 21° North  Level Estimated
Wed 10:18:00 AM 34.9468 114.0462 21° North  Level Estimated
Wed 10:19:00 AM 35.0425 114.0902 21° North  Level Estimated
Wed 10:20:00 AM 35.1381 114.1343 21° North  Level Estimated
Wed 10:21:00 AM 35.2337 114.1786 21° North  Level Estimated
Wed 10:22:00 AM 35.3293 114.2229 21° North  Level Estimated
Wed 10:23:00 AM 35.4249 114.2674 21° North  Level Estimated
Wed 10:24:00 AM 35.5205 114.3120 21° North  Level Estimated
Wed 10:25:00 AM 35.6161 114.3566 21° North  Level Estimated
Wed 10:26:00 AM 35.7116 114.4014 21° North  Level Estimated
Wed 10:27:00 AM 35.8071 114.4463 21° North  Level Estimated
Wed 10:28:00 AM 35.9026 114.4913 21° North  Level Estimated
Wed 10:29:00 AM 35.9981 114.5364 21° North  Level Estimated
Wed 10:30:00 AM 36.0936 114.5816 21° North  Level Estimated
Wed 10:31:00 AM 36.1890 114.6269 21° North  Level Estimated
Wed 10:32:00 AM 36.2845 114.6723 21° North  Level Estimated
Wed 10:33:00 AM 36.3799 114.7179 21° North  Level Estimated
Wed 10:34:00 AM 36.4753 114.7635 21° North  Level Estimated
Wed 10:35:00 AM 36.5707 114.8093 21° North  Level Estimated
Wed 10:36:00 AM 36.6660 114.8552 21° North  Level Estimated
Wed 10:37:00 AM 36.7614 114.9012 21° North  Level Estimated
Wed 10:38:00 AM 36.8567 114.9473 21° North  Level Estimated
Wed 10:39:00 AM 36.9520 114.9935 21° North  Level Estimated
Wed 10:40:00 AM 37.0473 115.0398 21° North  Level Estimated
Wed 10:41:00 AM 37.1426 115.0863 21° North  Level Estimated
Wed 10:42:00 AM 37.2379 115.1329 21° North  Level Estimated
Wed 10:43:00 AM 37.3331 115.1796 21° North  Level Estimated
Wed 10:44:00 AM 37.4283 115.2264 21° North  Level Estimated
Wed 10:45:00 AM 37.5235 115.2733 21° North  Level Estimated
Wed 10:46:00 AM 37.6187 115.3203 21° North  Level Estimated
Wed 10:47:00 AM 37.7139 115.3675 21° North  Level Estimated
Wed 10:48:00 AM 37.8090 115.4148 21° North  Level Estimated
Wed 10:49:00 AM 37.9042 115.4622 21° North  Level Estimated
Wed 10:50:00 AM 37.9993 115.5097 21° North  Level Estimated
Wed 10:51:00 AM 38.0944 115.5574 22° Northeast  Level Estimated
Wed 10:52:00 AM 38.1894 115.6052 22° Northeast  Level Estimated
Wed 10:53:00 AM 38.2845 115.6531 22° Northeast  Level Estimated
Wed 10:54:00 AM 38.3795 115.7011 22° Northeast  Level Estimated
Wed 10:55:00 AM 38.4745 115.7493 22° Northeast  Level Estimated
Wed 10:56:00 AM 38.5695 115.7976 22° Northeast  Level Estimated
Wed 10:57:00 AM 38.6645 115.8460 22° Northeast  Level Estimated
Wed 10:58:00 AM 38.7594 115.8945 22° Northeast  Level Estimated
Wed 10:59:00 AM 38.8544 115.9432 22° Northeast  Level Estimated
Wed 11:00:00 AM 38.9493 115.9920 22° Northeast  Level Estimated
Wed 11:01:00 AM 39.0442 116.0409 22° Northeast  Level Estimated
Wed 11:02:00 AM 39.1390 116.0900 22° Northeast  Level Estimated
Wed 11:03:00 AM 39.2339 116.1392 22° Northeast  Level Estimated
Wed 11:04:00 AM 39.3287 116.1885 22° Northeast  Level Estimated
Wed 11:05:00 AM 39.4235 116.2380 22° Northeast  Level Estimated
Wed 11:06:00 AM 39.5183 116.2876 22° Northeast  Level Estimated
Wed 11:07:00 AM 39.6131 116.3373 22° Northeast  Level Estimated
Wed 11:08:00 AM 39.7078 116.3872 22° Northeast  Level Estimated
Wed 11:09:00 AM 39.8026 116.4372 22° Northeast  Level Estimated
Wed 11:10:00 AM 39.8973 116.4873 22° Northeast  Level Estimated
Wed 11:11:00 AM 39.9920 116.5376 22° Northeast  Level Estimated
Wed 11:12:00 AM 40.0801 116.5846 22° Northeast  Level Estimated
Wed 11:13:00 AM 40.0801 116.5846 288° West  Level Estimated
Wed 11:14:00 AM 40.0801 116.5846 288° West  Level Estimated
Wed 11:15:00 AM 40.0801 116.5846 288° West  Level Estimated
Wed 11:16:00 AM 40.0801 116.5846 288° West  Level Estimated
Wed 11:17:00 AM 40.0801 116.5846 288° West  Level Estimated

Login

Don't have an account? Register now (free) for customized features, flight alerts, and more!